KHLC

Hill City Municipal Airport

Hill City, Kansas, USA
METAR KHLC 140353Z AUTO 27003KT CLR M05/M07 A3041 RMK AO2 SLP323 T10501072 $
Observed Flight Rules
Nov-14 @ 03:53 UTC (56 minutes ago)
Wind Clouds
270° at 3 knots
  • Clear skies
Temperatures Readings
Current -5°C / 23°F
Dewpoint -7°C / 19°F
Humidity 86%
Altimeter 30.41" Hg
Pressure 1032.3 hPa
Elevation 669
METAR KHLC 140353Z AUTO 27003KT CLR M05/M07 A3041 RMK AO2 SLP323 T10501072 $
Observed Flight Rules
Nov-14 @ 03:53 UTC
(56 minutes ago)
Wind
270° at 3 knots
Clouds
  • Clear skies
Temperature Dewpoint
-5°C / 23°F -7°C / 19°F
Humidity Altimeter Pressure
86% 30.41" Hg 1032.3 hPa